createdAt,value
2017-02-16T00:00:28.131Z,88.35
2017-02-16T00:01:28.929Z,88.64
2017-02-16T00:02:29.641Z,88.17
2017-02-16T00:03:30.371Z,88.26
2017-02-16T00:04:31.079Z,87.88
2017-02-16T00:05:31.833Z,88.64
2017-02-16T00:06:32.644Z,88.54
2017-02-16T00:07:33.412Z,88.26
2017-02-16T00:08:34.137Z,88.73
2017-02-16T00:09:34.864Z,88.73
2017-02-16T00:10:35.598Z,88.4
2017-02-16T00:11:36.329Z,88.54
2017-02-16T00:12:37.066Z,88.54
2017-02-16T00:13:37.755Z,88.59
2017-02-16T00:14:38.494Z,88.4
2017-02-16T00:15:39.260Z,88.49
2017-02-16T00:16:40.001Z,88.31
2017-02-16T00:17:40.733Z,88.21
2017-02-16T00:18:41.477Z,88.12
2017-02-16T00:19:42.211Z,87.93
2017-02-16T00:20:43.065Z,88.49
2017-02-16T00:21:43.769Z,88.49
2017-02-16T00:22:44.523Z,88.49
2017-02-16T00:23:45.286Z,88.31
2017-02-16T00:24:46.001Z,88.02
2017-02-16T00:25:46.693Z,88.54
2017-02-16T00:26:47.414Z,88.68
2017-02-16T00:27:48.143Z,88.64
2017-02-16T00:28:48.887Z,88.68
2017-02-16T00:29:49.583Z,89.06
2017-02-16T00:30:50.317Z,88.59
2017-02-16T00:31:51.019Z,88.78
2017-02-16T00:32:51.709Z,88.78
2017-02-16T00:33:52.433Z,89.06
2017-02-16T00:34:53.133Z,88.68
2017-02-16T00:35:53.828Z,88.78
2017-02-16T00:36:54.541Z,88.68
2017-02-16T00:37:55.247Z,88.97
2017-02-16T00:38:56.078Z,88.97
2017-02-16T00:39:56.722Z,89.06
2017-02-16T00:40:57.444Z,88.97
2017-02-16T00:41:58.164Z,88.68
2017-02-16T00:42:58.883Z,88.78
2017-02-16T00:43:59.626Z,88.87
2017-02-16T00:45:00.334Z,88.78
2017-02-16T00:46:01.142Z,88.87
2017-02-16T00:47:01.849Z,88.68
2017-02-16T00:48:02.600Z,88.78
2017-02-16T00:49:03.335Z,88.78
2017-02-16T00:50:04.048Z,88.97
2017-02-16T00:51:04.725Z,88.87
2017-02-16T00:52:05.434Z,88.59
2017-02-16T00:53:06.160Z,89.16
2017-02-16T00:54:06.873Z,88.78
2017-02-16T00:55:07.568Z,88.87
2017-02-16T00:56:08.308Z,88.78
2017-02-16T00:57:09.009Z,88.78
2017-02-16T00:58:09.736Z,88.31
2017-02-16T00:59:10.475Z,88.49
2017-02-16T01:00:11.169Z,88.78
2017-02-16T01:01:11.899Z,88.78
2017-02-16T01:02:12.571Z,88.49
2017-02-16T01:03:13.347Z,88.78
2017-02-16T01:04:14.005Z,88.68
2017-02-16T01:05:14.724Z,88.54
2017-02-16T01:06:15.463Z,88.59
2017-02-16T01:07:16.150Z,88.49
2017-02-16T01:08:16.858Z,89.06
2017-02-16T01:09:17.569Z,88.49
2017-02-16T01:10:18.323Z,88.45
2017-02-16T01:11:19.065Z,88.45
2017-02-16T01:12:19.813Z,88.35
2017-02-16T01:13:20.525Z,88.54
2017-02-16T01:14:21.232Z,88.21
2017-02-16T01:15:21.947Z,88.35
2017-02-16T01:16:22.678Z,88.07
2017-02-16T01:17:23.417Z,88.26
2017-02-16T01:18:24.124Z,88.26
2017-02-16T01:19:24.846Z,88.07
2017-02-16T01:20:25.586Z,88.17
2017-02-16T01:21:26.295Z,87.88
2017-02-16T01:22:27.011Z,88.17
2017-02-16T01:23:27.712Z,88.26
2017-02-16T01:24:28.411Z,88.17
2017-02-16T01:25:29.145Z,87.98
2017-02-16T01:26:29.875Z,87.59
2017-02-16T01:27:30.570Z,87.5
2017-02-16T01:28:31.307Z,87.31
2017-02-16T01:29:32.011Z,86.83
2017-02-16T01:30:32.736Z,87.21
2017-02-16T01:31:33.498Z,86.83
2017-02-16T01:32:34.202Z,86.93
2017-02-16T01:33:35.008Z,87.12
2017-02-16T01:34:35.727Z,87.12
2017-02-16T01:35:36.429Z,86.74
2017-02-16T01:36:37.141Z,86.65
2017-02-16T01:37:37.858Z,86.65
2017-02-16T01:38:38.580Z,86.46
2017-02-16T01:39:39.269Z,86.74
2017-02-16T01:40:39.995Z,86.65
2017-02-16T01:41:40.712Z,86.36
2017-02-16T01:42:41.420Z,86.27
2017-02-16T01:43:42.122Z,86.46
2017-02-16T01:44:42.840Z,86.55
2017-02-16T01:45:43.561Z,86.55
2017-02-16T01:46:44.288Z,86.55
2017-02-16T01:47:44.998Z,86.55
2017-02-16T01:48:45.709Z,86.55
2017-02-16T01:49:46.447Z,86.46
2017-02-16T01:50:47.149Z,86.55
2017-02-16T01:51:47.862Z,86.55
2017-02-16T01:52:48.561Z,85.89
2017-02-16T01:53:49.272Z,85.89
2017-02-16T01:54:49.965Z,86.18
2017-02-16T01:55:50.654Z,86.55
2017-02-16T01:56:51.361Z,86.36
2017-02-16T01:57:52.070Z,86.46
2017-02-16T01:58:52.780Z,86.46
2017-02-16T01:59:53.480Z,86.46
2017-02-16T02:00:54.230Z,86.65
2017-02-16T02:01:54.958Z,86.74
2017-02-16T02:02:55.648Z,86.65
2017-02-16T02:03:56.356Z,86.74
2017-02-16T02:04:57.061Z,86.93
2017-02-16T02:05:57.768Z,86.93
2017-02-16T02:06:58.465Z,86.74
2017-02-16T02:07:59.161Z,86.55
2017-02-16T02:08:59.884Z,86.74
2017-02-16T02:10:00.579Z,86.93
2017-02-16T02:11:01.281Z,86.65
2017-02-16T02:12:08.721Z,86.74
2017-02-16T02:13:09.432Z,86.55
2017-02-16T02:14:10.136Z,86.74
2017-02-16T02:15:10.863Z,87.12
2017-02-16T02:16:11.578Z,87.31
2017-02-16T02:17:12.294Z,87.12
2017-02-16T02:18:13.004Z,87.21
2017-02-16T02:19:13.721Z,87.12
2017-02-16T02:20:14.412Z,86.65
2017-02-16T02:21:15.131Z,87.4
2017-02-16T02:22:15.869Z,87.12
2017-02-16T02:23:16.564Z,86.93
2017-02-16T02:24:17.282Z,87.02
2017-02-16T02:25:18.012Z,87.02
2017-02-16T02:26:18.746Z,87.02
2017-02-16T02:27:19.457Z,87.02
2017-02-16T02:28:20.148Z,87.4
2017-02-16T02:29:20.857Z,87.59
2017-02-16T02:30:21.576Z,87.4
2017-02-16T02:31:22.300Z,87.02
2017-02-16T02:32:22.995Z,87.31
2017-02-16T02:33:23.698Z,87.12
2017-02-16T02:34:24.461Z,87.69
2017-02-16T02:35:25.241Z,87.5
2017-02-16T02:36:25.946Z,87.4
2017-02-16T02:37:26.647Z,87.98
2017-02-16T02:38:27.345Z,87.88
2017-02-16T02:39:28.056Z,87.69
2017-02-16T02:40:28.761Z,87.78
2017-02-16T02:41:29.437Z,87.78
2017-02-16T02:42:30.109Z,87.59
2017-02-16T02:43:30.821Z,87.4
2017-02-16T02:44:31.525Z,87.5
2017-02-16T02:45:32.220Z,87.4
2017-02-16T02:46:32.920Z,87.59
2017-02-16T02:47:33.614Z,87.59
2017-02-16T02:48:34.424Z,87.78
2017-02-16T02:49:35.147Z,87.98
2017-02-16T02:50:35.838Z,87.98
2017-02-16T02:51:36.535Z,88.17
2017-02-16T02:52:37.247Z,88.26
2017-02-16T02:53:37.964Z,88.73
2017-02-16T02:54:38.683Z,88.54
2017-02-16T02:55:39.387Z,88.45
2017-02-16T02:56:40.111Z,88.17
2017-02-16T02:57:40.820Z,88.17
2017-02-16T02:58:41.536Z,88.17
2017-02-16T02:59:42.225Z,87.88
2017-02-16T03:00:42.947Z,88.54
2017-02-16T03:01:43.645Z,88.73
2017-02-16T03:02:44.429Z,88.54
2017-02-16T03:03:45.115Z,88.45
2017-02-16T03:04:45.845Z,88.64
2017-02-16T03:05:46.608Z,88.07
2017-02-16T03:06:47.311Z,88.54
2017-02-16T03:07:48.019Z,88.17
2017-02-16T03:08:48.769Z,88.17
2017-02-16T03:09:49.488Z,87.98
2017-02-16T03:10:50.212Z,87.98
2017-02-16T03:11:50.902Z,88.26
2017-02-16T03:12:51.626Z,87.88
2017-02-16T03:13:52.356Z,87.88
2017-02-16T03:14:53.073Z,87.88
2017-02-16T03:15:53.791Z,88.07
2017-02-16T03:16:54.475Z,88.35
2017-02-16T03:17:55.203Z,88.07
2017-02-16T03:18:55.922Z,87.98
2017-02-16T03:19:56.617Z,88.64
2017-02-16T03:20:57.335Z,88.54
2017-02-16T03:21:58.045Z,88.54
2017-02-16T03:22:58.750Z,88.54
2017-02-16T03:23:59.445Z,88.64
2017-02-16T03:25:00.159Z,88.35
2017-02-16T03:26:00.841Z,88.35
2017-02-16T03:27:01.557Z,88.26
2017-02-16T03:28:02.247Z,88.26
2017-02-16T03:29:02.958Z,87.88
2017-02-16T03:30:03.635Z,88.45
2017-02-16T03:31:04.349Z,88.45
2017-02-16T03:32:05.076Z,88.54
2017-02-16T03:33:05.777Z,88.26
2017-02-16T03:34:06.507Z,88.54
2017-02-16T03:35:07.230Z,88.92
2017-02-16T03:36:07.931Z,89.11
2017-02-16T03:37:08.641Z,88.82
2017-02-16T03:38:09.341Z,88.45
2017-02-16T03:39:10.038Z,88.82
2017-02-16T03:40:10.738Z,88.73
2017-02-16T03:41:11.462Z,88.82
2017-02-16T03:42:12.161Z,89.01
2017-02-16T03:43:12.878Z,88.64
2017-02-16T03:44:13.585Z,88.82
2017-02-16T03:45:14.336Z,88.92
2017-02-16T03:46:15.058Z,89.2
2017-02-16T03:47:15.768Z,89.3
2017-02-16T03:48:16.474Z,89.49
2017-02-16T03:49:17.184Z,89.3
2017-02-16T03:50:17.872Z,89.3
2017-02-16T03:51:18.592Z,89.35
2017-02-16T03:52:19.295Z,89.11
2017-02-16T03:53:20.025Z,89.49
2017-02-16T03:54:20.730Z,89.77
2017-02-16T03:55:21.464Z,89.68
2017-02-16T03:56:22.190Z,89.87
2017-02-16T03:57:22.914Z,89.96
2017-02-16T03:58:23.647Z,89.44
2017-02-16T03:59:24.354Z,90.01
2017-02-16T04:00:25.065Z,89.82
2017-02-16T04:01:25.770Z,90.3
2017-02-16T04:02:26.459Z,89.92
2017-02-16T04:03:27.158Z,90.2
2017-02-16T04:04:27.956Z,90.2
2017-02-16T04:05:28.665Z,90.2
2017-02-16T04:06:29.383Z,90.11
2017-02-16T04:07:30.104Z,90.39
2017-02-16T04:08:30.804Z,90.77
2017-02-16T04:09:31.508Z,90.67
2017-02-16T04:10:32.200Z,90.58
2017-02-16T04:11:32.901Z,90.58
2017-02-16T04:12:33.612Z,90.39
2017-02-16T04:13:34.341Z,90.48
2017-02-16T04:14:35.040Z,90.3
2017-02-16T04:15:35.747Z,90.67
2017-02-16T04:16:36.484Z,90.86
2017-02-16T04:17:37.205Z,91.1
2017-02-16T04:18:37.963Z,90.86
2017-02-16T04:19:38.675Z,90.86
2017-02-16T04:20:39.429Z,90.91
2017-02-16T04:21:40.168Z,90.96
2017-02-16T04:22:40.907Z,90.96
2017-02-16T04:23:41.746Z,90.77
2017-02-16T04:24:42.451Z,90.96
2017-02-16T04:25:43.177Z,90.77
2017-02-16T04:26:43.896Z,90.96
2017-02-16T04:27:44.856Z,91.24
2017-02-16T04:28:46.375Z,91.15
2017-02-16T04:29:47.097Z,91.43
2017-02-16T04:30:48.141Z,91.43
2017-02-16T04:31:49.288Z,91.34
2017-02-16T04:32:50.002Z,91.29
2017-02-16T04:33:50.719Z,91.24
2017-02-16T04:34:51.445Z,91.34
2017-02-16T04:35:52.424Z,91.1
2017-02-16T04:36:53.184Z,91.29
2017-02-16T04:37:53.918Z,91.43
2017-02-16T04:38:54.653Z,91.43
2017-02-16T04:39:55.352Z,91.72
2017-02-16T04:40:56.089Z,91.67
2017-02-16T04:41:56.828Z,91.43
2017-02-16T04:42:57.535Z,91.34
2017-02-16T04:43:58.256Z,91.72
2017-02-16T04:44:58.972Z,91.53
2017-02-16T04:45:59.685Z,91.81
2017-02-16T04:47:00.396Z,91.53
2017-02-16T04:48:01.120Z,92.29
2017-02-16T04:49:01.808Z,92.19
2017-02-16T04:50:02.651Z,92
2017-02-16T04:51:03.362Z,92
2017-02-16T04:52:04.083Z,92.1
2017-02-16T04:53:04.808Z,92.19
2017-02-16T04:54:05.703Z,92.19
2017-02-16T04:55:06.414Z,92.47
2017-02-16T04:56:07.151Z,92.19
2017-02-16T04:57:07.838Z,92.47
2017-02-16T04:58:08.537Z,92.29
2017-02-16T04:59:09.276Z,92.1
2017-02-16T05:00:09.972Z,92
2017-02-16T05:01:10.673Z,91.81
2017-02-16T05:02:11.380Z,92.1
2017-02-16T05:03:12.102Z,92.38
2017-02-16T05:04:12.820Z,92.47
2017-02-16T05:05:13.575Z,92.85
2017-02-16T05:06:14.981Z,93.23
2017-02-16T05:07:17.198Z,93.32
2017-02-16T05:08:18.588Z,93.23
2017-02-16T05:09:19.267Z,93.23
2017-02-16T05:10:19.976Z,92.94
2017-02-16T05:11:20.689Z,93.04
2017-02-16T05:12:21.394Z,93.04
2017-02-16T05:13:22.090Z,93.42
2017-02-16T05:14:22.789Z,93.23
2017-02-16T05:15:23.494Z,93.42
2017-02-16T05:16:24.214Z,93.23
2017-02-16T05:17:24.956Z,93.89
2017-02-16T05:18:25.662Z,93.61
2017-02-16T05:19:26.377Z,93.89
2017-02-16T05:20:27.059Z,94.18
2017-02-16T05:21:27.758Z,93.99
2017-02-16T05:22:28.444Z,93.8
2017-02-16T05:23:29.160Z,93.89
2017-02-16T05:24:29.849Z,94.37
2017-02-16T05:25:30.570Z,93.89
2017-02-16T05:26:31.297Z,94.74
2017-02-16T05:27:32.012Z,94.65
2017-02-16T05:28:32.787Z,94.74
2017-02-16T05:29:33.515Z,95.5
2017-02-16T05:30:34.232Z,95.5
2017-02-16T05:31:34.956Z,96.54
2017-02-16T05:32:35.681Z,96.35
2017-02-16T05:33:36.422Z,96.26
2017-02-16T05:34:37.150Z,96.64
2017-02-16T05:35:37.849Z,96.59
2017-02-16T05:36:38.569Z,96.69
2017-02-16T05:37:39.296Z,96.4
2017-02-16T05:38:39.993Z,97.16
2017-02-16T05:39:40.697Z,96.59
2017-02-16T05:40:41.424Z,96.59
2017-02-16T05:41:42.123Z,96.21
2017-02-16T05:42:42.846Z,96.26
2017-02-16T05:43:43.542Z,96.31
2017-02-16T05:44:44.251Z,96.59
2017-02-16T05:45:44.985Z,96.07
2017-02-16T05:46:45.675Z,96.59
2017-02-16T05:47:46.371Z,96.4
2017-02-16T05:48:47.072Z,96.5
2017-02-16T05:49:47.790Z,96.59
2017-02-16T05:50:48.505Z,95.88
2017-02-16T05:51:49.222Z,95.97
2017-02-16T05:52:49.940Z,96.02
2017-02-16T05:53:50.643Z,95.97
2017-02-16T05:54:51.337Z,95.93
2017-02-16T05:55:52.037Z,95.97
2017-02-16T05:56:52.736Z,96.73
2017-02-16T05:57:53.434Z,96.12
2017-02-16T05:58:54.141Z,96.31
2017-02-16T05:59:54.855Z,96.4
2017-02-16T06:00:55.548Z,96.64
2017-02-16T06:01:56.229Z,96.88
2017-02-16T06:02:56.954Z,97.16
2017-02-16T06:03:57.668Z,97.63
2017-02-16T06:04:58.368Z,97.35
2017-02-16T06:05:59.074Z,97.82
2017-02-16T06:06:59.789Z,97.63
2017-02-16T06:08:00.470Z,97.92
2017-02-16T06:09:01.249Z,98.2
2017-02-16T06:10:01.960Z,97.92
2017-02-16T06:11:02.757Z,97.54
2017-02-16T06:12:03.461Z,98.39
2017-02-16T06:13:04.179Z,98.77
2017-02-16T06:14:04.917Z,98.68
2017-02-16T06:15:05.635Z,98.68
2017-02-16T06:16:06.355Z,98.11
2017-02-16T06:17:07.057Z,98.3
2017-02-16T06:18:07.749Z,98.39
2017-02-16T06:19:08.502Z,98.49
2017-02-16T06:20:09.202Z,98.68
2017-02-16T06:21:09.921Z,98.68
2017-02-16T06:22:10.620Z,99.52
2017-02-16T06:23:11.342Z,99.52
2017-02-16T06:24:12.059Z,99.43
2017-02-16T06:25:12.785Z,99.99
2017-02-16T06:26:13.490Z,99.9
2017-02-16T06:27:14.189Z,99.99
2017-02-16T06:28:14.893Z,99.99
2017-02-16T06:29:15.630Z,99.99
2017-02-16T06:30:16.330Z,99.99
2017-02-16T06:31:17.060Z,99.99
2017-02-16T06:32:17.795Z,99.71
2017-02-16T06:33:18.508Z,99.99
2017-02-16T06:34:19.257Z,99.99
2017-02-16T06:35:19.966Z,99.99
2017-02-16T06:36:20.671Z,99.99
2017-02-16T06:37:21.360Z,99.99
2017-02-16T06:38:22.088Z,99.99
2017-02-16T06:39:22.803Z,99.99
2017-02-16T06:40:23.532Z,99.99
2017-02-16T06:41:24.262Z,99.99
2017-02-16T06:42:24.977Z,99.99
2017-02-16T06:43:25.706Z,99.99
2017-02-16T06:44:26.414Z,99.99
2017-02-16T06:45:27.117Z,99.99
2017-02-16T06:46:27.807Z,99.99
2017-02-16T06:47:28.514Z,99.99
2017-02-16T06:48:29.268Z,99.99
2017-02-16T06:49:30.000Z,99.99
2017-02-16T06:50:30.720Z,99.99
2017-02-16T06:51:31.436Z,99.99
2017-02-16T06:52:32.152Z,99.99
2017-02-16T06:53:32.874Z,99.99
2017-02-16T06:54:33.607Z,99.99
2017-02-16T06:55:34.348Z,99.99
2017-02-16T06:56:35.058Z,99.99
2017-02-16T06:57:35.773Z,99.99
2017-02-16T06:58:36.497Z,99.99
2017-02-16T06:59:37.204Z,99.99
2017-02-16T07:00:37.950Z,99.99
2017-02-16T07:01:38.643Z,99.99
2017-02-16T07:02:39.352Z,99.99
2017-02-16T07:03:40.068Z,99.99
2017-02-16T07:04:40.788Z,99.99
2017-02-16T07:05:41.494Z,99.99
2017-02-16T07:06:42.208Z,99.99
2017-02-16T07:07:42.879Z,99.99
2017-02-16T07:08:43.568Z,99.99
2017-02-16T07:09:44.270Z,99.99
2017-02-16T07:10:44.971Z,99.99
2017-02-16T07:11:45.691Z,99.99
2017-02-16T07:12:46.419Z,99.99
2017-02-16T07:13:47.143Z,99.99
2017-02-16T07:14:47.856Z,99.99
2017-02-16T07:15:48.579Z,99.99
2017-02-16T07:16:49.288Z,99.99
2017-02-16T07:17:50.004Z,99.99
2017-02-16T07:18:50.695Z,99.99
2017-02-16T07:19:51.427Z,99.99
2017-02-16T07:20:52.137Z,99.99
2017-02-16T07:21:52.844Z,99.99
2017-02-16T07:22:53.563Z,99.99
2017-02-16T07:23:54.278Z,99.99
2017-02-16T07:24:55.005Z,99.99
2017-02-16T07:25:55.718Z,99.99
2017-02-16T07:26:56.452Z,99.99
2017-02-16T07:27:57.191Z,99.99
2017-02-16T07:28:57.893Z,99.99
2017-02-16T07:29:58.628Z,99.99
2017-02-16T07:30:59.331Z,99.99
2017-02-16T07:32:00.023Z,99.99
2017-02-16T07:33:00.730Z,99.99
2017-02-16T07:34:01.511Z,99.99
2017-02-16T07:35:02.236Z,99.99
2017-02-16T07:36:02.948Z,99.99
2017-02-16T07:37:03.655Z,99.99
2017-02-16T07:38:04.367Z,99.99
2017-02-16T07:39:05.089Z,99.99
2017-02-16T07:40:05.798Z,99.99
2017-02-16T07:41:06.512Z,99.99
2017-02-16T07:42:07.218Z,99.99
2017-02-16T07:43:07.931Z,99.99
2017-02-16T07:44:08.640Z,99.99
2017-02-16T07:45:09.352Z,99.99
2017-02-16T07:46:10.072Z,99.99
2017-02-16T07:47:10.809Z,99.99
2017-02-16T07:48:11.545Z,99.99
2017-02-16T07:49:12.272Z,99.99
2017-02-16T07:50:13.001Z,99.99
2017-02-16T07:51:13.717Z,99.99
2017-02-16T07:52:14.423Z,99.99
2017-02-16T07:53:15.164Z,99.99
2017-02-16T07:54:15.892Z,99.99
2017-02-16T07:55:16.620Z,99.99
2017-02-16T07:56:17.328Z,99.99
2017-02-16T07:57:18.061Z,99.99
2017-02-16T07:58:18.848Z,99.99
2017-02-16T07:59:19.572Z,99.99
2017-02-16T08:00:20.317Z,99.99
2017-02-16T08:01:21.051Z,99.99
2017-02-16T08:02:21.776Z,99.99
2017-02-16T08:03:22.495Z,99.99
2017-02-16T08:04:23.254Z,99.99
2017-02-16T08:05:23.977Z,99.73
2017-02-16T08:06:24.703Z,99.54
2017-02-16T08:07:25.409Z,98.5
2017-02-16T08:08:26.132Z,98.12
2017-02-16T08:09:26.853Z,97.36
2017-02-16T08:10:27.608Z,97.55
2017-02-16T08:11:28.386Z,97.64
2017-02-16T08:12:29.134Z,97.27
2017-02-16T08:13:29.877Z,96.79
2017-02-16T08:14:30.636Z,96.88
2017-02-16T08:15:31.361Z,96.31
2017-02-16T08:16:32.087Z,96.12
2017-02-16T08:17:32.832Z,96.03
2017-02-16T08:18:33.544Z,96.41
2017-02-16T08:19:34.276Z,95.75
2017-02-16T08:20:35.012Z,96.12
2017-02-16T08:21:35.727Z,95.46
2017-02-16T08:22:36.443Z,95.36
2017-02-16T08:23:37.168Z,95.36
2017-02-16T08:24:37.937Z,95.46
2017-02-16T08:25:38.675Z,95.55
2017-02-16T08:26:39.419Z,96.03
2017-02-16T08:27:40.177Z,95.65
2017-02-16T08:28:40.909Z,95.84
2017-02-16T08:29:41.672Z,96.03
2017-02-16T08:30:42.419Z,96.88
2017-02-16T08:31:43.196Z,96.69
2017-02-16T08:32:43.917Z,96.79
2017-02-16T08:33:44.700Z,96.98
2017-02-16T08:34:45.517Z,96.6
2017-02-16T08:35:46.227Z,96.79
2017-02-16T08:36:47.007Z,96.6
2017-02-16T08:37:47.746Z,96.64
2017-02-16T08:38:48.481Z,96.98
2017-02-16T08:39:49.209Z,97.07
2017-02-16T08:40:49.937Z,97.07
2017-02-16T08:41:50.663Z,97.27
2017-02-16T08:42:51.405Z,96.79
2017-02-16T08:43:52.114Z,97.22
2017-02-16T08:44:52.874Z,96.83
2017-02-16T08:45:53.594Z,97.07
2017-02-16T08:46:54.309Z,97.27
2017-02-16T08:47:55.012Z,96.79
2017-02-16T08:48:55.759Z,96.79
2017-02-16T08:49:56.496Z,96.98
2017-02-16T08:50:57.234Z,96.88
2017-02-16T08:51:57.948Z,96.5
2017-02-16T08:52:58.640Z,96.69
2017-02-16T08:53:59.376Z,96.41
2017-02-16T08:55:00.105Z,96.69
2017-02-16T08:56:00.869Z,96.22
2017-02-16T08:57:01.577Z,95.36
2017-02-16T08:58:02.335Z,95.36
2017-02-16T08:59:03.050Z,94.51
2017-02-16T09:00:03.767Z,94.32
2017-02-16T09:01:04.497Z,93.79
2017-02-16T09:02:05.284Z,93.51
2017-02-16T09:03:05.994Z,92.94
2017-02-16T09:04:06.698Z,92.41
2017-02-16T09:05:07.446Z,91.47
2017-02-16T09:06:08.156Z,90.7
2017-02-16T09:07:08.871Z,90.42
2017-02-16T09:08:09.585Z,90.33
2017-02-16T09:09:10.314Z,89.94
2017-02-16T09:10:11.036Z,89.66
2017-02-16T09:11:11.758Z,90.23
2017-02-16T09:12:12.476Z,90.14
2017-02-16T09:13:13.207Z,90.37
2017-02-16T09:14:13.924Z,90.75
2017-02-16T09:15:14.650Z,90.75
2017-02-16T09:16:15.399Z,91.61
2017-02-16T09:17:16.128Z,91.13
2017-02-16T09:18:16.865Z,91.42
2017-02-16T09:19:17.626Z,91.61
2017-02-16T09:20:18.441Z,91.42
2017-02-16T09:21:19.243Z,91.33
2017-02-16T09:22:19.980Z,91.42
2017-02-16T09:23:20.714Z,91.71
2017-02-16T09:24:21.490Z,91.89
2017-02-16T09:25:22.209Z,91.89
2017-02-16T09:26:22.974Z,91.61
2017-02-16T09:27:23.717Z,91.71
2017-02-16T09:28:24.461Z,92.46
2017-02-16T09:29:25.161Z,92.27
2017-02-16T09:30:25.870Z,92.27
2017-02-16T09:31:26.605Z,91.89
2017-02-16T09:32:27.332Z,91.89
2017-02-16T09:33:28.053Z,91.89
2017-02-16T09:34:28.775Z,92.27
2017-02-16T09:35:29.501Z,91.99
2017-02-16T09:36:30.253Z,92.37
2017-02-16T09:37:30.981Z,93.13
2017-02-16T09:38:31.717Z,92.85
2017-02-16T09:39:32.442Z,92.85
2017-02-16T09:40:33.173Z,92.75
2017-02-16T09:41:33.896Z,92.66
2017-02-16T09:42:34.648Z,92.56
2017-02-16T09:43:35.390Z,92.46
2017-02-16T09:44:36.249Z,92.94
2017-02-16T09:45:36.955Z,93.6
2017-02-16T09:46:37.661Z,93.41
2017-02-16T09:47:38.382Z,92.85
2017-02-16T09:48:39.141Z,92.66
2017-02-16T09:49:39.881Z,92.94
2017-02-16T09:50:40.695Z,92.94
2017-02-16T09:51:41.482Z,92.94
2017-02-16T09:52:42.246Z,92.75
2017-02-16T09:53:42.980Z,92.94
2017-02-16T09:54:44.532Z,92.85
2017-02-16T09:55:45.215Z,93.23
2017-02-16T09:56:45.966Z,93.04
2017-02-16T09:57:46.690Z,93.32
2017-02-16T09:58:47.410Z,93.7
2017-02-16T09:59:48.136Z,93.6
2017-02-16T10:00:48.846Z,93.41
2017-02-16T10:01:49.568Z,93.41
2017-02-16T10:02:50.350Z,93.23
2017-02-16T10:03:51.084Z,93.41
2017-02-16T10:04:51.810Z,93.41
2017-02-16T10:05:52.581Z,93.6
2017-02-16T10:06:53.396Z,93.23
2017-02-16T10:07:54.124Z,93.18
2017-02-16T10:08:54.875Z,93.41
2017-02-16T10:09:55.626Z,93.51
2017-02-16T10:10:56.425Z,93.18
2017-02-16T10:11:57.175Z,93.51
2017-02-16T10:12:57.921Z,93.89
2017-02-16T10:13:58.643Z,93.41
2017-02-16T10:14:59.422Z,93.46
2017-02-16T10:16:00.180Z,93.7
2017-02-16T10:17:00.905Z,93.7
2017-02-16T10:18:01.670Z,93.32
2017-02-16T10:19:02.402Z,93.65
2017-02-16T10:20:03.155Z,93.55
2017-02-16T10:21:03.939Z,93.55
2017-02-16T10:22:04.606Z,93.23
2017-02-16T10:23:05.411Z,93.6
2017-02-16T10:24:06.258Z,93.41
2017-02-16T10:25:07.100Z,93.27
2017-02-16T10:26:07.941Z,93.18
2017-02-16T10:27:08.738Z,93.18
2017-02-16T10:28:09.456Z,93.75
2017-02-16T10:29:10.207Z,93.46
2017-02-16T10:30:10.994Z,93.75
2017-02-16T10:31:11.865Z,93.55
2017-02-16T10:32:12.636Z,93.65
2017-02-16T10:33:13.405Z,93.55
2017-02-16T10:34:14.161Z,93.37
2017-02-16T10:35:14.972Z,93.75
2017-02-16T10:36:15.881Z,93.46
2017-02-16T10:37:16.649Z,93.55
2017-02-16T10:38:17.452Z,93.37
2017-02-16T10:39:18.223Z,93.27
2017-02-16T10:40:18.954Z,93.37
2017-02-16T10:41:19.805Z,93.94
2017-02-16T10:42:20.562Z,93.27
2017-02-16T10:43:21.322Z,93.37
2017-02-16T10:44:22.051Z,93.27
2017-02-16T10:45:22.804Z,93.37
2017-02-16T10:46:23.578Z,93.65
2017-02-16T10:47:24.369Z,94.03
2017-02-16T10:48:25.178Z,94.42
2017-02-16T10:49:26.076Z,94.22
2017-02-16T10:50:27.032Z,94.03
2017-02-16T10:51:27.816Z,93.94
2017-02-16T10:52:28.581Z,93.94
2017-02-16T10:53:29.398Z,94.22
2017-02-16T10:54:30.205Z,93.94
2017-02-16T10:55:30.906Z,94.13
2017-02-16T10:56:31.694Z,93.94
2017-02-16T10:57:32.502Z,93.46
2017-02-16T10:58:33.298Z,94.03
2017-02-16T10:59:34.026Z,93.84
2017-02-16T11:00:34.842Z,94.22
2017-02-16T11:01:35.602Z,93.94
2017-02-16T11:02:36.409Z,94.03
2017-02-16T11:03:37.267Z,94.22
2017-02-16T11:04:38.107Z,93.94
2017-02-16T11:05:39.014Z,93.84
2017-02-16T11:06:39.830Z,94.22
2017-02-16T11:07:40.619Z,93.65
2017-02-16T11:08:41.298Z,93.94
2017-02-16T11:09:42.010Z,93.84
2017-02-16T11:10:42.734Z,94.13
2017-02-16T11:11:43.448Z,94.51
2017-02-16T11:12:44.172Z,93.27
2017-02-16T11:13:44.895Z,93.94
2017-02-16T11:14:45.632Z,93.94
2017-02-16T11:15:46.374Z,94.22
2017-02-16T11:16:47.094Z,94.51
2017-02-16T11:17:47.820Z,93.84
2017-02-16T11:18:48.544Z,94.51
2017-02-16T11:19:49.341Z,93.18
2017-02-16T11:20:50.084Z,93.55
2017-02-16T11:21:50.831Z,93.27
2017-02-16T11:22:51.548Z,93.46
2017-02-16T11:23:52.267Z,93.46
2017-02-16T11:24:52.978Z,93.7
2017-02-16T11:25:53.697Z,92.99
2017-02-16T11:26:54.430Z,93.04
2017-02-16T11:27:55.130Z,92.7
2017-02-16T11:28:55.846Z,92.94
2017-02-16T11:29:56.568Z,92.75
2017-02-16T11:30:57.279Z,92.36
2017-02-16T11:31:58.016Z,92.8
2017-02-16T11:32:58.774Z,92.51
2017-02-16T11:33:59.526Z,92.75
2017-02-16T11:35:00.268Z,92.84
2017-02-16T11:36:00.972Z,92.65
2017-02-16T11:37:01.696Z,92.65
2017-02-16T11:38:02.418Z,92.65
2017-02-16T11:39:03.153Z,92.36
2017-02-16T11:40:03.860Z,92.27
2017-02-16T11:41:04.587Z,92.27
2017-02-16T11:42:05.316Z,92.18
2017-02-16T11:43:06.044Z,92.36
2017-02-16T11:44:06.775Z,92.36
2017-02-16T11:45:07.500Z,92.08
2017-02-16T11:46:08.218Z,92.08
2017-02-16T11:47:08.929Z,91.99
2017-02-16T11:48:09.646Z,92.36
2017-02-16T11:49:10.387Z,91.8
2017-02-16T11:50:11.121Z,91.99
2017-02-16T11:51:11.886Z,92.18
2017-02-16T11:52:12.619Z,92.36
2017-02-16T11:53:13.329Z,92.36
2017-02-16T11:54:14.083Z,91.7
2017-02-16T11:55:14.804Z,91.99
2017-02-16T11:56:15.547Z,91.99
2017-02-16T11:57:16.292Z,91.42
2017-02-16T11:58:17.016Z,91.46
2017-02-16T11:59:17.760Z,91.51
2017-02-16T12:00:18.486Z,91.37
2017-02-16T12:01:19.201Z,91.7
2017-02-16T12:02:20.773Z,91.7
2017-02-16T12:03:21.490Z,91.8
2017-02-16T12:04:22.250Z,91.8
2017-02-16T12:05:22.979Z,91.7
2017-02-16T12:06:23.721Z,91.94
2017-02-16T12:07:24.456Z,91.56
2017-02-16T12:08:25.182Z,91.75
2017-02-16T12:09:25.923Z,91.7
2017-02-16T12:10:26.640Z,91.42
2017-02-16T12:11:27.376Z,91.61
2017-02-16T12:12:28.081Z,92.46
2017-02-16T12:13:28.806Z,92.36
2017-02-16T12:14:29.550Z,92.27
2017-02-16T12:15:30.308Z,92.18
2017-02-16T12:16:31.113Z,92.75
2017-02-16T12:17:31.832Z,92.84
2017-02-16T12:18:32.564Z,93.41
2017-02-16T12:19:33.321Z,93.6
2017-02-16T12:20:34.012Z,93.41
2017-02-16T12:21:34.734Z,93.6
2017-02-16T12:22:35.462Z,93.41
2017-02-16T12:23:36.202Z,93.32
2017-02-16T12:24:36.941Z,93.32
2017-02-16T12:25:37.675Z,93.51
2017-02-16T12:26:38.386Z,93.32
2017-02-16T12:27:39.132Z,93.41
2017-02-16T12:28:39.870Z,93.41
2017-02-16T12:29:40.584Z,93.98
2017-02-16T12:30:41.299Z,93.79
2017-02-16T12:31:42.045Z,93.89
2017-02-16T12:32:42.761Z,93.79
2017-02-16T12:33:43.509Z,94.37
2017-02-16T12:34:44.218Z,94.46
2017-02-16T12:35:44.933Z,94.56
2017-02-16T12:36:45.648Z,94.27
2017-02-16T12:37:46.406Z,94.56
2017-02-16T12:38:47.118Z,94.65
2017-02-16T12:39:47.959Z,94.84
2017-02-16T12:40:48.653Z,95.03
2017-02-16T12:41:49.372Z,94.7
2017-02-16T12:42:50.150Z,95.27
2017-02-16T12:43:50.892Z,94.89
2017-02-16T12:44:51.683Z,95.56
2017-02-16T12:45:52.429Z,96.41
2017-02-16T12:46:53.226Z,96.03
2017-02-16T12:47:53.929Z,95.94
2017-02-16T12:48:54.642Z,96.5
2017-02-16T12:49:55.364Z,96.41
2017-02-16T12:50:56.126Z,96.31
2017-02-16T12:51:56.834Z,95.84
2017-02-16T12:52:57.636Z,96.22
2017-02-16T12:53:58.385Z,96.41
2017-02-16T12:54:59.122Z,95.75
2017-02-16T12:55:59.853Z,95.65
2017-02-16T12:57:00.583Z,96.31
2017-02-16T12:58:01.353Z,96.31
2017-02-16T12:59:02.200Z,96.22
2017-02-16T13:00:02.949Z,96.22
2017-02-16T13:01:03.654Z,96.31
2017-02-16T13:02:04.363Z,95.79
2017-02-16T13:03:05.069Z,95.79
2017-02-16T13:04:05.856Z,95.89